sensor_id;sensor_type;location;lat;lon;timestamp;P1;durP1;ratioP1;P2;durP2;ratioP2
50319;SDS011;36226;53.464;9.852;2023-07-31T00:00:56;5.65;;;1.38;;
50319;SDS011;36226;53.464;9.852;2023-07-31T00:03:21;9.13;;;1.90;;
50319;SDS011;36226;53.464;9.852;2023-07-31T00:05:46;6.70;;;1.50;;
50319;SDS011;36226;53.464;9.852;2023-07-31T00:08:12;5.93;;;1.67;;
50319;SDS011;36226;53.464;9.852;2023-07-31T00:10:37;8.30;;;1.60;;
50319;SDS011;36226;53.464;9.852;2023-07-31T00:13:02;11.93;;;1.65;;
50319;SDS011;36226;53.464;9.852;2023-07-31T00:15:28;4.57;;;1.40;;
50319;SDS011;36226;53.464;9.852;2023-07-31T00:17:53;9.48;;;1.92;;
50319;SDS011;36226;53.464;9.852;2023-07-31T00:20:19;8.20;;;1.92;;
50319;SDS011;36226;53.464;9.852;2023-07-31T00:22:44;7.35;;;1.65;;
50319;SDS011;36226;53.464;9.852;2023-07-31T00:25:09;9.30;;;1.88;;
50319;SDS011;36226;53.464;9.852;2023-07-31T00:27:35;5.63;;;1.67;;
50319;SDS011;36226;53.464;9.852;2023-07-31T00:30:00;5.00;;;1.48;;
50319;SDS011;36226;53.464;9.852;2023-07-31T00:32:25;3.80;;;1.33;;
50319;SDS011;36226;53.464;9.852;2023-07-31T00:34:51;7.35;;;1.55;;
50319;SDS011;36226;53.464;9.852;2023-07-31T00:37:16;5.95;;;1.60;;
50319;SDS011;36226;53.464;9.852;2023-07-31T00:39:41;4.95;;;1.52;;
50319;SDS011;36226;53.464;9.852;2023-07-31T00:42:07;6.32;;;1.30;;
50319;SDS011;36226;53.464;9.852;2023-07-31T00:44:32;5.88;;;1.40;;
50319;SDS011;36226;53.464;9.852;2023-07-31T00:46:58;6.80;;;1.73;;
50319;SDS011;36226;53.464;9.852;2023-07-31T00:49:24;8.40;;;1.50;;
50319;SDS011;36226;53.464;9.852;2023-07-31T00:51:49;7.68;;;1.95;;
50319;SDS011;36226;53.464;9.852;2023-07-31T00:54:15;9.57;;;1.83;;
50319;SDS011;36226;53.464;9.852;2023-07-31T00:56:40;6.65;;;2.08;;
50319;SDS011;36226;53.464;9.852;2023-07-31T00:59:07;6.82;;;2.28;;
50319;SDS011;36226;53.464;9.852;2023-07-31T01:01:32;5.93;;;1.90;;
50319;SDS011;36226;53.464;9.852;2023-07-31T01:03:58;7.78;;;1.90;;
50319;SDS011;36226;53.464;9.852;2023-07-31T01:12:02;7.85;;;1.73;;
50319;SDS011;36226;53.464;9.852;2023-07-31T01:14:28;7.32;;;1.92;;
50319;SDS011;36226;53.464;9.852;2023-07-31T01:16:54;7.90;;;2.00;;
50319;SDS011;36226;53.464;9.852;2023-07-31T01:19:21;4.18;;;1.88;;
50319;SDS011;36226;53.464;9.852;2023-07-31T01:21:53;6.10;;;1.88;;
50319;SDS011;36226;53.464;9.852;2023-07-31T01:27:15;9.43;;;3.08;;
50319;SDS011;36226;53.464;9.852;2023-07-31T01:29:43;7.38;;;2.17;;
50319;SDS011;36226;53.464;9.852;2023-07-31T01:32:10;7.80;;;2.03;;
50319;SDS011;36226;53.464;9.852;2023-07-31T01:34:36;7.65;;;2.28;;
50319;SDS011;36226;53.464;9.852;2023-07-31T01:37:04;3.25;;;1.70;;
50319;SDS011;36226;53.464;9.852;2023-07-31T01:39:30;6.90;;;1.83;;
50319;SDS011;36226;53.464;9.852;2023-07-31T01:41:55;6.05;;;2.22;;
50319;SDS011;36226;53.464;9.852;2023-07-31T01:44:20;5.15;;;1.90;;
50319;SDS011;36226;53.464;9.852;2023-07-31T01:46:46;6.15;;;2.20;;
50319;SDS011;36226;53.464;9.852;2023-07-31T01:49:11;9.52;;;2.53;;
50319;SDS011;36226;53.464;9.852;2023-07-31T01:51:36;7.90;;;2.03;;
50319;SDS011;36226;53.464;9.852;2023-07-31T01:54:02;7.60;;;2.00;;
50319;SDS011;36226;53.464;9.852;2023-07-31T01:56:28;4.75;;;2.17;;
50319;SDS011;36226;53.464;9.852;2023-07-31T01:58:56;8.40;;;2.10;;
50319;SDS011;36226;53.464;9.852;2023-07-31T02:01:21;6.13;;;1.88;;
50319;SDS011;36226;53.464;9.852;2023-07-31T02:03:46;8.45;;;2.33;;
50319;SDS011;36226;53.464;9.852;2023-07-31T02:06:12;7.55;;;2.20;;
50319;SDS011;36226;53.464;9.852;2023-07-31T02:08:37;8.02;;;2.17;;
50319;SDS011;36226;53.464;9.852;2023-07-31T02:11:03;9.70;;;1.98;;
50319;SDS011;36226;53.464;9.852;2023-07-31T02:13:28;5.43;;;2.30;;
50319;SDS011;36226;53.464;9.852;2023-07-31T02:15:53;7.10;;;1.88;;
50319;SDS011;36226;53.464;9.852;2023-07-31T02:18:19;5.38;;;2.10;;
50319;SDS011;36226;53.464;9.852;2023-07-31T02:20:48;7.07;;;2.63;;
50319;SDS011;36226;53.464;9.852;2023-07-31T02:23:14;9.45;;;2.58;;
50319;SDS011;36226;53.464;9.852;2023-07-31T02:25:40;5.00;;;2.38;;
50319;SDS011;36226;53.464;9.852;2023-07-31T02:28:05;9.20;;;2.30;;
50319;SDS011;36226;53.464;9.852;2023-07-31T02:30:30;6.55;;;2.30;;
50319;SDS011;36226;53.464;9.852;2023-07-31T02:32:56;6.13;;;2.25;;
50319;SDS011;36226;53.464;9.852;2023-07-31T02:35:21;3.95;;;2.25;;
50319;SDS011;36226;53.464;9.852;2023-07-31T02:37:46;7.63;;;2.10;;
50319;SDS011;36226;53.464;9.852;2023-07-31T02:40:12;5.35;;;2.17;;
50319;SDS011;36226;53.464;9.852;2023-07-31T02:42:37;7.88;;;2.20;;
50319;SDS011;36226;53.464;9.852;2023-07-31T02:45:03;6.45;;;2.35;;
50319;SDS011;36226;53.464;9.852;2023-07-31T02:47:28;7.57;;;2.55;;
50319;SDS011;36226;53.464;9.852;2023-07-31T02:49:54;5.80;;;2.45;;
50319;SDS011;36226;53.464;9.852;2023-07-31T02:52:21;6.05;;;2.55;;
50319;SDS011;36226;53.464;9.852;2023-07-31T02:54:46;8.15;;;2.38;;
50319;SDS011;36226;53.464;9.852;2023-07-31T02:57:11;7.57;;;2.08;;
50319;SDS011;36226;53.464;9.852;2023-07-31T02:59:37;9.50;;;2.47;;
50319;SDS011;36226;53.464;9.852;2023-07-31T03:02:02;8.23;;;2.28;;
50319;SDS011;36226;53.464;9.852;2023-07-31T03:04:28;5.78;;;2.47;;
50319;SDS011;36226;53.464;9.852;2023-07-31T03:06:53;4.40;;;2.20;;
50319;SDS011;36226;53.464;9.852;2023-07-31T03:09:18;5.55;;;2.20;;
50319;SDS011;36226;53.464;9.852;2023-07-31T03:11:44;9.57;;;2.13;;
50319;SDS011;36226;53.464;9.852;2023-07-31T03:14:09;8.10;;;2.40;;
50319;SDS011;36226;53.464;9.852;2023-07-31T03:16:34;10.95;;;3.28;;
50319;SDS011;36226;53.464;9.852;2023-07-31T03:19:00;4.20;;;2.10;;
50319;SDS011;36226;53.464;9.852;2023-07-31T03:21:25;6.00;;;2.50;;
50319;SDS011;36226;53.464;9.852;2023-07-31T03:23:50;4.22;;;2.10;;
50319;SDS011;36226;53.464;9.852;2023-07-31T03:26:15;7.10;;;2.50;;
50319;SDS011;36226;53.464;9.852;2023-07-31T03:28:41;5.80;;;2.50;;
50319;SDS011;36226;53.464;9.852;2023-07-31T03:31:06;5.53;;;2.22;;
50319;SDS011;36226;53.464;9.852;2023-07-31T03:33:33;5.97;;;2.25;;
50319;SDS011;36226;53.464;9.852;2023-07-31T03:35:58;7.00;;;2.40;;
50319;SDS011;36226;53.464;9.852;2023-07-31T03:38:24;3.90;;;2.40;;
50319;SDS011;36226;53.464;9.852;2023-07-31T03:40:49;5.82;;;2.83;;
50319;SDS011;36226;53.464;9.852;2023-07-31T03:43:15;5.75;;;2.40;;
50319;SDS011;36226;53.464;9.852;2023-07-31T03:45:40;7.70;;;2.15;;
50319;SDS011;36226;53.464;9.852;2023-07-31T03:48:05;2.70;;;2.20;;
50319;SDS011;36226;53.464;9.852;2023-07-31T03:50:32;8.75;;;2.75;;
50319;SDS011;36226;53.464;9.852;2023-07-31T03:52:58;5.20;;;2.35;;
50319;SDS011;36226;53.464;9.852;2023-07-31T03:55:26;4.30;;;2.42;;
50319;SDS011;36226;53.464;9.852;2023-07-31T03:57:54;6.43;;;2.40;;
50319;SDS011;36226;53.464;9.852;2023-07-31T04:00:20;3.00;;;2.42;;
50319;SDS011;36226;53.464;9.852;2023-07-31T04:02:46;4.95;;;2.20;;
50319;SDS011;36226;53.464;9.852;2023-07-31T04:05:11;3.28;;;2.10;;
50319;SDS011;36226;53.464;9.852;2023-07-31T04:07:37;4.45;;;2.42;;
50319;SDS011;36226;53.464;9.852;2023-07-31T04:10:03;4.43;;;2.58;;
50319;SDS011;36226;53.464;9.852;2023-07-31T04:12:28;4.22;;;2.38;;
50319;SDS011;36226;53.464;9.852;2023-07-31T04:14:54;4.93;;;2.25;;
50319;SDS011;36226;53.464;9.852;2023-07-31T04:17:19;6.50;;;2.22;;
50319;SDS011;36226;53.464;9.852;2023-07-31T04:19:44;4.03;;;2.20;;
50319;SDS011;36226;53.464;9.852;2023-07-31T04:22:10;4.32;;;2.33;;
50319;SDS011;36226;53.464;9.852;2023-07-31T04:24:35;4.30;;;2.00;;
50319;SDS011;36226;53.464;9.852;2023-07-31T04:27:01;3.38;;;2.50;;
50319;SDS011;36226;53.464;9.852;2023-07-31T04:29:26;6.45;;;2.40;;
50319;SDS011;36226;53.464;9.852;2023-07-31T04:31:54;5.18;;;2.30;;
50319;SDS011;36226;53.464;9.852;2023-07-31T04:34:19;6.13;;;2.70;;
50319;SDS011;36226;53.464;9.852;2023-07-31T04:36:48;3.90;;;2.25;;
50319;SDS011;36226;53.464;9.852;2023-07-31T04:39:13;3.78;;;2.45;;
50319;SDS011;36226;53.464;9.852;2023-07-31T04:41:38;3.45;;;2.40;;
50319;SDS011;36226;53.464;9.852;2023-07-31T04:44:04;4.40;;;2.50;;
50319;SDS011;36226;53.464;9.852;2023-07-31T04:46:29;3.97;;;2.67;;
50319;SDS011;36226;53.464;9.852;2023-07-31T04:48:55;3.70;;;2.50;;
50319;SDS011;36226;53.464;9.852;2023-07-31T04:51:21;3.92;;;2.30;;
50319;SDS011;36226;53.464;9.852;2023-07-31T04:53:48;4.20;;;2.80;;
50319;SDS011;36226;53.464;9.852;2023-07-31T04:56:13;3.88;;;2.40;;
50319;SDS011;36226;53.464;9.852;2023-07-31T04:58:40;5.00;;;2.67;;
50319;SDS011;36226;53.464;9.852;2023-07-31T05:01:05;4.65;;;2.42;;
50319;SDS011;36226;53.464;9.852;2023-07-31T05:03:31;3.88;;;2.30;;
50319;SDS011;36226;53.464;9.852;2023-07-31T05:05:56;5.05;;;2.80;;
50319;SDS011;36226;53.464;9.852;2023-07-31T05:08:22;3.95;;;2.38;;
50319;SDS011;36226;53.464;9.852;2023-07-31T05:10:47;3.72;;;2.67;;
50319;SDS011;36226;53.464;9.852;2023-07-31T05:13:13;4.75;;;2.97;;
50319;SDS011;36226;53.464;9.852;2023-07-31T05:15:39;6.07;;;3.03;;
50319;SDS011;36226;53.464;9.852;2023-07-31T05:18:04;4.13;;;3.05;;
50319;SDS011;36226;53.464;9.852;2023-07-31T05:20:29;5.13;;;2.60;;
50319;SDS011;36226;53.464;9.852;2023-07-31T05:22:55;4.30;;;3.03;;
50319;SDS011;36226;53.464;9.852;2023-07-31T05:25:20;4.50;;;2.90;;
50319;SDS011;36226;53.464;9.852;2023-07-31T05:27:45;4.68;;;3.00;;
50319;SDS011;36226;53.464;9.852;2023-07-31T05:30:11;3.95;;;2.95;;
50319;SDS011;36226;53.464;9.852;2023-07-31T05:32:36;4.60;;;2.90;;
50319;SDS011;36226;53.464;9.852;2023-07-31T05:35:01;4.55;;;2.80;;
50319;SDS011;36226;53.464;9.852;2023-07-31T05:37:27;3.50;;;2.65;;
50319;SDS011;36226;53.464;9.852;2023-07-31T05:39:52;5.22;;;2.85;;
50319;SDS011;36226;53.464;9.852;2023-07-31T05:42:18;5.07;;;3.20;;
50319;SDS011;36226;53.464;9.852;2023-07-31T05:44:43;6.60;;;3.20;;
50319;SDS011;36226;53.464;9.852;2023-07-31T05:47:08;3.88;;;3.13;;
50319;SDS011;36226;53.464;9.852;2023-07-31T05:49:34;5.15;;;3.47;;
50319;SDS011;36226;53.464;9.852;2023-07-31T05:51:59;4.10;;;3.20;;
50319;SDS011;36226;53.464;9.852;2023-07-31T05:54:25;3.88;;;2.83;;
50319;SDS011;36226;53.464;9.852;2023-07-31T05:56:50;4.45;;;3.15;;
50319;SDS011;36226;53.464;9.852;2023-07-31T05:59:15;6.10;;;2.97;;
50319;SDS011;36226;53.464;9.852;2023-07-31T06:01:41;5.13;;;3.25;;
50319;SDS011;36226;53.464;9.852;2023-07-31T06:04:07;4.30;;;3.10;;
50319;SDS011;36226;53.464;9.852;2023-07-31T06:06:32;5.03;;;3.10;;
50319;SDS011;36226;53.464;9.852;2023-07-31T06:08:57;4.13;;;3.03;;
50319;SDS011;36226;53.464;9.852;2023-07-31T06:11:23;3.80;;;2.90;;
50319;SDS011;36226;53.464;9.852;2023-07-31T06:13:48;3.38;;;2.50;;
50319;SDS011;36226;53.464;9.852;2023-07-31T06:16:15;3.67;;;2.97;;
50319;SDS011;36226;53.464;9.852;2023-07-31T06:18:40;3.45;;;2.53;;
50319;SDS011;36226;53.464;9.852;2023-07-31T06:21:06;3.58;;;2.70;;
50319;SDS011;36226;53.464;9.852;2023-07-31T06:23:32;2.80;;;2.50;;
50319;SDS011;36226;53.464;9.852;2023-07-31T06:25:57;3.90;;;2.72;;
50319;SDS011;36226;53.464;9.852;2023-07-31T06:28:29;3.22;;;2.83;;
50319;SDS011;36226;53.464;9.852;2023-07-31T06:30:55;3.25;;;2.53;;
50319;SDS011;36226;53.464;9.852;2023-07-31T06:33:21;3.15;;;2.47;;
50319;SDS011;36226;53.464;9.852;2023-07-31T06:35:46;4.53;;;2.70;;
50319;SDS011;36226;53.464;9.852;2023-07-31T06:38:11;2.95;;;2.60;;
50319;SDS011;36226;53.464;9.852;2023-07-31T06:40:37;3.35;;;2.67;;
50319;SDS011;36226;53.464;9.852;2023-07-31T06:43:02;4.15;;;2.83;;
50319;SDS011;36226;53.464;9.852;2023-07-31T06:45:33;3.50;;;2.58;;
50319;SDS011;36226;53.464;9.852;2023-07-31T06:47:59;2.75;;;2.47;;
50319;SDS011;36226;53.464;9.852;2023-07-31T06:50:26;3.22;;;2.55;;
50319;SDS011;36226;53.464;9.852;2023-07-31T06:52:52;3.40;;;2.45;;
50319;SDS011;36226;53.464;9.852;2023-07-31T06:55:18;2.65;;;2.15;;
50319;SDS011;36226;53.464;9.852;2023-07-31T06:57:45;2.95;;;2.25;;
50319;SDS011;36226;53.464;9.852;2023-07-31T07:00:13;3.13;;;2.35;;
50319;SDS011;36226;53.464;9.852;2023-07-31T07:02:39;3.55;;;2.30;;
50319;SDS011;36226;53.464;9.852;2023-07-31T07:05:04;2.92;;;2.00;;
50319;SDS011;36226;53.464;9.852;2023-07-31T07:07:31;2.83;;;2.28;;
50319;SDS011;36226;53.464;9.852;2023-07-31T07:09:57;2.78;;;2.40;;
50319;SDS011;36226;53.464;9.852;2023-07-31T07:12:24;3.17;;;2.42;;
50319;SDS011;36226;53.464;9.852;2023-07-31T07:14:50;2.70;;;2.45;;
50319;SDS011;36226;53.464;9.852;2023-07-31T07:17:15;2.80;;;2.13;;
50319;SDS011;36226;53.464;9.852;2023-07-31T07:19:40;4.43;;;2.35;;
50319;SDS011;36226;53.464;9.852;2023-07-31T07:22:07;2.60;;;2.03;;
50319;SDS011;36226;53.464;9.852;2023-07-31T07:24:32;2.65;;;2.10;;
50319;SDS011;36226;53.464;9.852;2023-07-31T07:26:57;2.85;;;2.10;;
50319;SDS011;36226;53.464;9.852;2023-07-31T07:29:23;2.20;;;2.00;;
50319;SDS011;36226;53.464;9.852;2023-07-31T07:31:48;2.50;;;2.28;;
50319;SDS011;36226;53.464;9.852;2023-07-31T07:34:13;3.22;;;2.35;;
50319;SDS011;36226;53.464;9.852;2023-07-31T07:36:39;2.42;;;1.92;;
50319;SDS011;36226;53.464;9.852;2023-07-31T07:39:04;3.50;;;1.90;;
50319;SDS011;36226;53.464;9.852;2023-07-31T07:41:30;2.95;;;2.25;;
50319;SDS011;36226;53.464;9.852;2023-07-31T07:43:55;2.55;;;1.90;;
50319;SDS011;36226;53.464;9.852;2023-07-31T07:46:20;2.15;;;1.60;;
50319;SDS011;36226;53.464;9.852;2023-07-31T07:48:46;1.85;;;1.60;;
50319;SDS011;36226;53.464;9.852;2023-07-31T07:51:11;1.80;;;1.58;;
50319;SDS011;36226;53.464;9.852;2023-07-31T07:53:36;1.60;;;1.35;;
50319;SDS011;36226;53.464;9.852;2023-07-31T07:56:02;1.85;;;1.50;;
50319;SDS011;36226;53.464;9.852;2023-07-31T07:58:27;1.90;;;1.40;;
50319;SDS011;36226;53.464;9.852;2023-07-31T08:00:53;2.83;;;1.42;;
50319;SDS011;36226;53.464;9.852;2023-07-31T08:03:18;1.40;;;1.30;;
50319;SDS011;36226;53.464;9.852;2023-07-31T08:05:44;1.52;;;1.33;;
50319;SDS011;36226;53.464;9.852;2023-07-31T08:08:13;1.60;;;1.30;;
50319;SDS011;36226;53.464;9.852;2023-07-31T08:10:40;0.95;;;0.80;;
50319;SDS011;36226;53.464;9.852;2023-07-31T08:13:05;1.40;;;1.08;;
50319;SDS011;36226;53.464;9.852;2023-07-31T08:15:30;1.27;;;1.00;;
50319;SDS011;36226;53.464;9.852;2023-07-31T08:17:56;1.27;;;0.80;;
50319;SDS011;36226;53.464;9.852;2023-07-31T08:20:21;4.20;;;1.10;;
50319;SDS011;36226;53.464;9.852;2023-07-31T08:22:46;1.58;;;0.68;;
50319;SDS011;36226;53.464;9.852;2023-07-31T08:25:12;1.60;;;0.80;;
50319;SDS011;36226;53.464;9.852;2023-07-31T08:27:37;1.20;;;0.80;;
50319;SDS011;36226;53.464;9.852;2023-07-31T08:30:02;2.47;;;0.73;;
50319;SDS011;36226;53.464;9.852;2023-07-31T08:32:28;1.02;;;0.82;;
50319;SDS011;36226;53.464;9.852;2023-07-31T08:34:53;1.55;;;0.70;;
50319;SDS011;36226;53.464;9.852;2023-07-31T08:37:19;0.90;;;0.70;;
50319;SDS011;36226;53.464;9.852;2023-07-31T08:39:44;1.45;;;0.90;;
50319;SDS011;36226;53.464;9.852;2023-07-31T08:42:10;0.77;;;0.70;;
50319;SDS011;36226;53.464;9.852;2023-07-31T08:44:35;0.70;;;0.60;;
50319;SDS011;36226;53.464;9.852;2023-07-31T08:47:01;1.00;;;0.60;;
50319;SDS011;36226;53.464;9.852;2023-07-31T08:49:27;0.77;;;0.60;;
50319;SDS011;36226;53.464;9.852;2023-07-31T08:51:52;0.70;;;0.55;;
50319;SDS011;36226;53.464;9.852;2023-07-31T08:54:18;0.50;;;0.50;;
50319;SDS011;36226;53.464;9.852;2023-07-31T08:56:43;0.63;;;0.43;;
50319;SDS011;36226;53.464;9.852;2023-07-31T08:59:09;0.73;;;0.45;;
50319;SDS011;36226;53.464;9.852;2023-07-31T09:01:37;0.60;;;0.60;;
50319;SDS011;36226;53.464;9.852;2023-07-31T09:04:08;0.40;;;0.40;;
50319;SDS011;36226;53.464;9.852;2023-07-31T09:06:34;0.40;;;0.40;;
50319;SDS011;36226;53.464;9.852;2023-07-31T09:09:00;0.43;;;0.40;;
50319;SDS011;36226;53.464;9.852;2023-07-31T09:11:25;0.40;;;0.40;;
50319;SDS011;36226;53.464;9.852;2023-07-31T09:13:52;0.77;;;0.50;;
50319;SDS011;36226;53.464;9.852;2023-07-31T09:16:17;0.43;;;0.40;;
50319;SDS011;36226;53.464;9.852;2023-07-31T09:18:53;0.57;;;0.28;;
50319;SDS011;36226;53.464;9.852;2023-07-31T09:21:20;1.05;;;0.40;;
50319;SDS011;36226;53.464;9.852;2023-07-31T09:23:46;0.43;;;0.30;;
50319;SDS011;36226;53.464;9.852;2023-07-31T09:26:34;0.30;;;0.30;;
50319;SDS011;36226;53.464;9.852;2023-07-31T09:28:59;0.20;;;0.20;;
50319;SDS011;36226;53.464;9.852;2023-07-31T09:31:39;0.40;;;0.20;;
50319;SDS011;36226;53.464;9.852;2023-07-31T09:34:08;1.15;;;0.20;;
50319;SDS011;36226;53.464;9.852;2023-07-31T09:36:42;0.20;;;0.10;;
50319;SDS011;36226;53.464;9.852;2023-07-31T09:39:10;1.35;;;0.47;;
50319;SDS011;36226;53.464;9.852;2023-07-31T09:41:36;0.13;;;0.10;;
50319;SDS011;36226;53.464;9.852;2023-07-31T09:44:03;0.30;;;0.10;;
50319;SDS011;36226;53.464;9.852;2023-07-31T09:46:29;0.20;;;0.10;;
50319;SDS011;36226;53.464;9.852;2023-07-31T09:49:03;0.08;;;0.00;;
50319;SDS011;36226;53.464;9.852;2023-07-31T09:51:30;2.53;;;0.10;;
50319;SDS011;36226;53.464;9.852;2023-07-31T09:53:56;0.20;;;0.10;;
50319;SDS011;36226;53.464;9.852;2023-07-31T09:56:21;0.10;;;0.10;;
50319;SDS011;36226;53.464;9.852;2023-07-31T09:58:48;0.82;;;0.20;;
50319;SDS011;36226;53.464;9.852;2023-07-31T10:01:14;1.00;;;0.20;;
50319;SDS011;36226;53.464;9.852;2023-07-31T10:03:39;0.17;;;0.10;;
50319;SDS011;36226;53.464;9.852;2023-07-31T10:06:05;2.35;;;0.10;;
50319;SDS011;36226;53.464;9.852;2023-07-31T10:08:32;1.38;;;0.40;;
50319;SDS011;36226;53.464;9.852;2023-07-31T10:11:01;1.38;;;0.80;;
50319;SDS011;36226;53.464;9.852;2023-07-31T10:13:27;1.20;;;0.80;;
50319;SDS011;36226;53.464;9.852;2023-07-31T10:15:53;3.40;;;1.55;;
50319;SDS011;36226;53.464;9.852;2023-07-31T10:18:19;3.25;;;1.50;;
50319;SDS011;36226;53.464;9.852;2023-07-31T10:20:45;5.72;;;2.47;;
50319;SDS011;36226;53.464;9.852;2023-07-31T10:23:12;8.25;;;2.88;;
50319;SDS011;36226;53.464;9.852;2023-07-31T10:25:38;6.32;;;2.60;;
50319;SDS011;36226;53.464;9.852;2023-07-31T10:28:04;9.57;;;3.50;;
50319;SDS011;36226;53.464;9.852;2023-07-31T10:30:31;11.60;;;5.03;;
50319;SDS011;36226;53.464;9.852;2023-07-31T10:32:57;14.82;;;6.20;;
50319;SDS011;36226;53.464;9.852;2023-07-31T10:35:23;11.68;;;5.72;;
50319;SDS011;36226;53.464;9.852;2023-07-31T10:37:48;17.17;;;6.50;;
50319;SDS011;36226;53.464;9.852;2023-07-31T10:40:18;13.65;;;6.78;;
50319;SDS011;36226;53.464;9.852;2023-07-31T10:42:48;16.52;;;7.72;;
50319;SDS011;36226;53.464;9.852;2023-07-31T10:45:37;16.98;;;7.80;;
50319;SDS011;36226;53.464;9.852;2023-07-31T10:50:30;22.35;;;7.97;;
50319;SDS011;36226;53.464;9.852;2023-07-31T10:52:59;19.85;;;8.35;;
50319;SDS011;36226;53.464;9.852;2023-07-31T10:57:51;19.60;;;7.95;;
50319;SDS011;36226;53.464;9.852;2023-07-31T11:00:27;14.82;;;6.68;;
50319;SDS011;36226;53.464;9.852;2023-07-31T11:02:57;18.67;;;8.15;;
50319;SDS011;36226;53.464;9.852;2023-07-31T11:05:40;16.33;;;6.68;;
50319;SDS011;36226;53.464;9.852;2023-07-31T11:10:38;13.13;;;6.18;;
50319;SDS011;36226;53.464;9.852;2023-07-31T11:13:06;11.32;;;5.32;;
50319;SDS011;36226;53.464;9.852;2023-07-31T11:15:31;9.48;;;5.32;;
50319;SDS011;36226;53.464;9.852;2023-07-31T11:17:57;9.80;;;4.35;;
50319;SDS011;36226;53.464;9.852;2023-07-31T11:20:25;10.63;;;4.57;;
50319;SDS011;36226;53.464;9.852;2023-07-31T11:22:50;11.65;;;4.53;;
50319;SDS011;36226;53.464;9.852;2023-07-31T11:25:16;8.00;;;4.13;;
50319;SDS011;36226;53.464;9.852;2023-07-31T11:27:41;6.68;;;3.55;;
50319;SDS011;36226;53.464;9.852;2023-07-31T11:30:08;5.63;;;3.55;;
50319;SDS011;36226;53.464;9.852;2023-07-31T11:32:36;6.63;;;3.72;;
50319;SDS011;36226;53.464;9.852;2023-07-31T11:35:02;5.57;;;3.70;;
50319;SDS011;36226;53.464;9.852;2023-07-31T11:37:39;5.57;;;3.20;;
50319;SDS011;36226;53.464;9.852;2023-07-31T11:40:05;8.60;;;3.53;;
50319;SDS011;36226;53.464;9.852;2023-07-31T11:42:31;8.70;;;3.90;;
50319;SDS011;36226;53.464;9.852;2023-07-31T11:44:56;6.13;;;3.60;;
50319;SDS011;36226;53.464;9.852;2023-07-31T11:47:22;6.65;;;3.30;;
50319;SDS011;36226;53.464;9.852;2023-07-31T11:49:47;5.03;;;2.65;;
50319;SDS011;36226;53.464;9.852;2023-07-31T11:52:13;6.88;;;2.42;;
50319;SDS011;36226;53.464;9.852;2023-07-31T11:54:39;5.45;;;2.92;;
50319;SDS011;36226;53.464;9.852;2023-07-31T11:57:05;4.97;;;2.50;;
50319;SDS011;36226;53.464;9.852;2023-07-31T11:59:31;4.20;;;2.38;;
50319;SDS011;36226;53.464;9.852;2023-07-31T12:01:56;6.53;;;2.53;;
50319;SDS011;36226;53.464;9.852;2023-07-31T12:04:22;5.97;;;2.60;;
50319;SDS011;36226;53.464;9.852;2023-07-31T12:06:55;3.38;;;1.90;;
50319;SDS011;36226;53.464;9.852;2023-07-31T12:09:20;4.47;;;2.30;;
50319;SDS011;36226;53.464;9.852;2023-07-31T12:11:46;2.72;;;1.88;;
50319;SDS011;36226;53.464;9.852;2023-07-31T12:14:25;3.10;;;2.10;;
50319;SDS011;36226;53.464;9.852;2023-07-31T12:16:54;2.55;;;1.70;;
50319;SDS011;36226;53.464;9.852;2023-07-31T12:19:21;2.50;;;1.75;;
50319;SDS011;36226;53.464;9.852;2023-07-31T12:21:47;3.13;;;1.85;;
50319;SDS011;36226;53.464;9.852;2023-07-31T12:24:12;3.50;;;1.50;;
50319;SDS011;36226;53.464;9.852;2023-07-31T12:26:37;2.78;;;1.40;;
50319;SDS011;36226;53.464;9.852;2023-07-31T12:29:04;3.30;;;1.85;;
50319;SDS011;36226;53.464;9.852;2023-07-31T12:31:33;2.33;;;1.15;;
50319;SDS011;36226;53.464;9.852;2023-07-31T12:33:59;2.45;;;1.30;;
50319;SDS011;36226;53.464;9.852;2023-07-31T12:36:24;2.20;;;1.42;;
50319;SDS011;36226;53.464;9.852;2023-07-31T12:38:50;2.20;;;1.40;;
50319;SDS011;36226;53.464;9.852;2023-07-31T12:41:16;1.48;;;1.15;;
50319;SDS011;36226;53.464;9.852;2023-07-31T12:43:43;1.83;;;1.10;;
50319;SDS011;36226;53.464;9.852;2023-07-31T12:46:10;4.68;;;1.38;;
50319;SDS011;36226;53.464;9.852;2023-07-31T12:48:36;1.42;;;1.10;;
50319;SDS011;36226;53.464;9.852;2023-07-31T12:51:04;2.53;;;1.05;;
50319;SDS011;36226;53.464;9.852;2023-07-31T12:53:31;1.70;;;0.98;;
50319;SDS011;36226;53.464;9.852;2023-07-31T12:55:57;1.52;;;0.90;;
50319;SDS011;36226;53.464;9.852;2023-07-31T12:58:22;1.52;;;1.08;;
50319;SDS011;36226;53.464;9.852;2023-07-31T13:00:48;1.08;;;0.73;;
50319;SDS011;36226;53.464;9.852;2023-07-31T13:03:13;1.20;;;0.90;;
50319;SDS011;36226;53.464;9.852;2023-07-31T13:05:39;1.92;;;1.20;;
50319;SDS011;36226;53.464;9.852;2023-07-31T13:08:04;1.02;;;0.80;;
50319;SDS011;36226;53.464;9.852;2023-07-31T13:10:29;0.80;;;0.80;;
50319;SDS011;36226;53.464;9.852;2023-07-31T13:12:55;1.33;;;0.90;;
50319;SDS011;36226;53.464;9.852;2023-07-31T13:15:21;1.80;;;0.90;;
50319;SDS011;36226;53.464;9.852;2023-07-31T13:17:46;1.02;;;0.85;;
50319;SDS011;36226;53.464;9.852;2023-07-31T13:20:12;1.75;;;0.77;;
50319;SDS011;36226;53.464;9.852;2023-07-31T13:22:37;1.25;;;1.00;;
50319;SDS011;36226;53.464;9.852;2023-07-31T13:25:03;1.10;;;0.90;;
50319;SDS011;36226;53.464;9.852;2023-07-31T13:27:28;1.55;;;0.75;;
50319;SDS011;36226;53.464;9.852;2023-07-31T13:29:54;0.77;;;0.70;;
50319;SDS011;36226;53.464;9.852;2023-07-31T13:32:19;1.15;;;0.70;;
50319;SDS011;36226;53.464;9.852;2023-07-31T13:34:45;0.95;;;0.60;;
50319;SDS011;36226;53.464;9.852;2023-07-31T13:37:11;1.13;;;0.60;;
50319;SDS011;36226;53.464;9.852;2023-07-31T13:39:36;0.60;;;0.60;;
50319;SDS011;36226;53.464;9.852;2023-07-31T13:42:06;2.30;;;0.75;;
50319;SDS011;36226;53.464;9.852;2023-07-31T13:44:33;0.55;;;0.40;;
50319;SDS011;36226;53.464;9.852;2023-07-31T13:47:01;0.70;;;0.50;;
50319;SDS011;36226;53.464;9.852;2023-07-31T13:49:27;0.93;;;0.50;;
50319;SDS011;36226;53.464;9.852;2023-07-31T13:51:52;0.65;;;0.47;;
50319;SDS011;36226;53.464;9.852;2023-07-31T13:54:18;1.95;;;0.50;;
50319;SDS011;36226;53.464;9.852;2023-07-31T13:56:44;0.40;;;0.40;;
50319;SDS011;36226;53.464;9.852;2023-07-31T13:59:09;0.88;;;0.35;;
50319;SDS011;36226;53.464;9.852;2023-07-31T14:01:35;0.77;;;0.60;;
50319;SDS011;36226;53.464;9.852;2023-07-31T14:04:01;0.52;;;0.50;;
50319;SDS011;36226;53.464;9.852;2023-07-31T14:06:26;0.40;;;0.40;;
50319;SDS011;36226;53.464;9.852;2023-07-31T14:08:51;1.02;;;0.60;;
50319;SDS011;36226;53.464;9.852;2023-07-31T14:11:17;1.85;;;0.52;;
50319;SDS011;36226;53.464;9.852;2023-07-31T14:13:42;0.68;;;0.50;;
50319;SDS011;36226;53.464;9.852;2023-07-31T14:16:07;4.72;;;0.93;;
50319;SDS011;36226;53.464;9.852;2023-07-31T14:18:34;2.30;;;0.93;;
50319;SDS011;36226;53.464;9.852;2023-07-31T14:20:59;7.68;;;0.90;;
50319;SDS011;36226;53.464;9.852;2023-07-31T14:23:24;2.35;;;0.60;;
50319;SDS011;36226;53.464;9.852;2023-07-31T14:25:53;0.60;;;0.60;;
50319;SDS011;36226;53.464;9.852;2023-07-31T14:28:18;0.60;;;0.60;;
50319;SDS011;36226;53.464;9.852;2023-07-31T14:30:46;0.90;;;0.75;;
50319;SDS011;36226;53.464;9.852;2023-07-31T14:33:12;1.42;;;0.80;;
50319;SDS011;36226;53.464;9.852;2023-07-31T14:35:37;1.10;;;0.95;;
50319;SDS011;36226;53.464;9.852;2023-07-31T14:38:03;1.35;;;1.00;;
50319;SDS011;36226;53.464;9.852;2023-07-31T14:40:28;1.10;;;0.90;;
50319;SDS011;36226;53.464;9.852;2023-07-31T14:42:53;1.88;;;1.30;;
50319;SDS011;36226;53.464;9.852;2023-07-31T14:45:19;1.10;;;1.00;;
50319;SDS011;36226;53.464;9.852;2023-07-31T14:47:44;1.55;;;1.10;;
50319;SDS011;36226;53.464;9.852;2023-07-31T14:50:09;1.50;;;1.40;;
50319;SDS011;36226;53.464;9.852;2023-07-31T14:52:35;2.60;;;1.40;;
50319;SDS011;36226;53.464;9.852;2023-07-31T14:55:00;3.92;;;1.52;;
50319;SDS011;36226;53.464;9.852;2023-07-31T14:57:26;2.65;;;1.75;;